Time;durP1;ratioP1;P1;durP2;ratioP2;P2;SDS_P1;SDS_P2;PMS_P1;PMS_P2;Temp;Humidity;BMP_temperature;BMP_pressure;BME280_temperature;BME280_humidity;BME280_pressure;Samples;Min_cycle;Max_cycle;Signal;HPM_P1;HPM_P2
2021/07/11 00:00:28;;;;;;;18.63;13.65;;;17.10;99.90;;;;;;5052773;28;20025;-79
2021/07/11 00:02:55;;;;;;;19.98;13.75;;;17.30;99.90;;;;;;5034015;28;20537;-79
2021/07/11 00:05:23;;;;;;;19.27;13.73;;;17.30;99.90;;;;;;5046816;28;20029;-80
2021/07/11 00:07:49;;;;;;;19.55;13.52;;;17.30;99.90;;;;;;5037051;28;20033;-81
2021/07/11 00:10:16;;;;;;;18.20;13.60;;;17.20;99.90;;;;;;5037353;28;20030;-80
2021/07/11 00:12:44;;;;;;;15.00;12.07;;;17.20;99.90;;;;;;5039758;28;20406;-80
2021/07/11 00:15:13;;;;;;;12.90;10.98;;;17.20;99.90;;;;;;5054600;28;20044;-80
2021/07/11 00:17:43;;;;;;;19.48;12.13;;;17.20;99.90;;;;;;5054551;28;20061;-79
2021/07/11 00:20:12;;;;;;;16.23;12.35;;;17.20;99.90;;;;;;5041841;28;20028;-78
2021/07/11 00:22:38;;;;;;;16.35;12.88;;;17.20;99.90;;;;;;5055029;28;20041;-78
2021/07/11 00:25:07;;;;;;;14.95;11.18;;;17.30;99.90;;;;;;5054837;28;20028;-79
2021/07/11 00:27:34;;;;;;;16.30;12.55;;;17.20;99.90;;;;;;5053840;28;20040;-78
2021/07/11 00:30:00;;;;;;;20.05;13.43;;;17.20;99.90;;;;;;5056309;28;20025;-78
2021/07/11 00:32:26;;;;;;;13.88;10.88;;;17.20;99.90;;;;;;5047015;28;20021;-78
2021/07/11 00:34:53;;;;;;;11.27;8.90;;;17.20;99.90;;;;;;5054015;28;20059;-78
2021/07/11 00:37:19;;;;;;;15.50;8.93;;;16.90;99.90;;;;;;5055224;28;20048;-79
2021/07/11 00:39:46;;;;;;;10.07;7.95;;;17.00;99.90;;;;;;5053411;28;20037;-79
2021/07/11 00:42:14;;;;;;;11.27;8.27;;;16.90;99.90;;;;;;5046501;28;20144;-78
2021/07/11 00:44:41;;;;;;;7.13;6.43;;;16.80;99.90;;;;;;5024533;28;20054;-78
2021/07/11 00:47:10;;;;;;;13.75;6.50;;;16.60;99.90;;;;;;5019935;28;20038;-78
2021/07/11 00:49:42;;;;;;;8.20;6.18;;;16.60;99.90;;;;;;5031140;28;20046;-77
2021/07/11 00:52:10;;;;;;;8.02;6.82;;;16.60;99.90;;;;;;5051626;28;20060;-78
2021/07/11 00:54:37;;;;;;;7.63;6.13;;;16.60;99.90;;;;;;5062579;28;20045;-79
2021/07/11 00:57:06;;;;;;;8.57;6.25;;;16.60;99.90;;;;;;5051235;28;20041;-77
2021/07/11 00:59:38;;;;;;;9.23;5.85;;;16.60;99.90;;;;;;5064345;28;20029;-78
2021/07/11 01:02:16;;;;;;;8.80;7.15;;;16.60;99.90;;;;;;5035235;28;20033;-77
2021/07/11 01:04:54;;;;;;;7.57;6.55;;;16.50;99.90;;;;;;5024212;28;20072;-79
2021/07/11 01:07:31;;;;;;;9.88;7.35;;;16.60;99.90;;;;;;5033649;28;20041;-79
2021/07/11 01:10:07;;;;;;;11.20;7.05;;;16.60;99.90;;;;;;5048657;28;20033;-78
2021/07/11 01:12:42;;;;;;;9.20;7.93;;;16.50;99.90;;;;;;5053938;28;20486;-76
2021/07/11 01:15:10;;;;;;;13.38;8.40;;;16.40;99.90;;;;;;5031779;28;20042;-77
2021/07/11 01:17:40;;;;;;;9.85;8.65;;;16.40;99.90;;;;;;5024577;28;20046;-78
2021/07/11 01:20:22;;;;;;;14.70;11.13;;;16.50;99.90;;;;;;5017414;28;20041;-78
2021/07/11 01:22:52;;;;;;;18.20;13.25;;;16.50;99.90;;;;;;5035842;28;20246;-78
2021/07/11 01:25:49;;;;;;;19.98;14.15;;;16.40;99.90;;;;;;5048814;28;20037;-77
2021/07/11 01:28:18;;;;;;;18.27;15.57;;;16.50;99.90;;;;;;5051267;28;20043;-76
2021/07/11 01:30:50;;;;;;;20.60;15.15;;;16.40;99.90;;;;;;5052918;28;20443;-77
2021/07/11 01:33:20;;;;;;;16.45;13.77;;;16.40;99.90;;;;;;5035593;28;20044;-77
2021/07/11 01:35:48;;;;;;;17.05;13.85;;;16.40;99.90;;;;;;5032640;28;20037;-77
2021/07/11 01:38:16;;;;;;;15.02;13.35;;;16.40;99.90;;;;;;5064929;28;20021;-76
2021/07/11 01:40:46;;;;;;;16.08;12.20;;;16.40;99.90;;;;;;5077888;28;20043;-77
2021/07/11 01:43:20;;;;;;;15.77;13.57;;;16.30;99.90;;;;;;5048871;28;20059;-76
2021/07/11 01:45:52;;;;;;;17.00;12.75;;;16.30;99.90;;;;;;5053513;28;20025;-76
2021/07/11 01:48:18;;;;;;;15.38;12.95;;;16.30;99.90;;;;;;5056974;28;20025;-76
2021/07/11 01:50:51;;;;;;;16.42;14.23;;;16.30;99.90;;;;;;5049594;28;20505;-76
2021/07/11 01:53:32;;;;;;;13.30;11.98;;;16.30;99.90;;;;;;5039437;28;20049;-76
2021/07/11 01:55:59;;;;;;;16.15;13.60;;;16.30;99.90;;;;;;5059087;28;20037;-76
2021/07/11 01:58:28;;;;;;;13.73;12.00;;;16.40;99.90;;;;;;5031392;28;20037;-78
2021/07/11 02:00:56;;;;;;;12.05;10.75;;;16.30;99.90;;;;;;5031824;28;20399;-78
2021/07/11 02:03:25;;;;;;;14.00;11.43;;;16.20;99.90;;;;;;5033734;28;20052;-78
2021/07/11 02:06:07;;;;;;;13.43;11.35;;;16.20;99.90;;;;;;5026553;28;20040;-78
2021/07/11 02:08:37;;;;;;;16.15;10.30;;;16.20;99.90;;;;;;5045117;28;20048;-77
2021/07/11 02:11:05;;;;;;;15.20;10.73;;;16.10;99.90;;;;;;5033526;28;20045;-77
2021/07/11 02:13:48;;;;;;;12.95;10.68;;;16.10;99.90;;;;;;5030938;28;20502;-76
2021/07/11 02:16:27;;;;;;;13.07;10.90;;;16.20;99.90;;;;;;5044065;28;20050;-76
2021/07/11 02:18:57;;;;;;;16.50;11.63;;;16.30;99.90;;;;;;5049947;28;20037;-76
2021/07/11 02:21:28;;;;;;;16.80;12.65;;;16.30;99.90;;;;;;5031080;28;20045;-76
2021/07/11 02:24:00;;;;;;;18.02;13.60;;;16.40;99.90;;;;;;5044351;28;20056;-76
2021/07/11 02:26:27;;;;;;;;;;;16.40;99.90;;;;;;5052995;28;20037;-76
2021/07/11 02:28:54;;;;;;;26.75;15.50;;;16.40;99.90;;;;;;5046814;28;20270;-77
2021/07/11 02:31:21;;;;;;;24.50;15.55;;;16.50;99.90;;;;;;5033333;28;20355;-79
2021/07/11 02:33:49;;;;;;;21.27;14.35;;;16.40;99.90;;;;;;5041800;28;20029;-78
2021/07/11 02:36:19;;;;;;;22.92;15.95;;;16.50;99.90;;;;;;5034228;28;20040;-77
2021/07/11 02:38:54;;;;;;;21.63;14.13;;;16.50;99.90;;;;;;5033142;28;20041;-78
2021/07/11 02:41:25;;;;;;;19.88;14.57;;;16.50;99.90;;;;;;5049956;28;20051;-77
2021/07/11 02:43:58;;;;;;;18.80;13.57;;;16.50;99.90;;;;;;5039979;28;20053;-77
2021/07/11 02:46:27;;;;;;;18.92;12.48;;;16.40;99.90;;;;;;5033893;28;20112;-79
2021/07/11 02:48:54;;;;;;;20.10;13.38;;;16.40;99.90;;;;;;5044511;28;20497;-79
2021/07/11 02:51:26;;;;;;;17.25;12.93;;;16.40;99.90;;;;;;5041031;28;20438;-78
2021/07/11 02:53:59;;;;;;;17.38;12.13;;;16.40;99.90;;;;;;5038838;28;20486;-77
2021/07/11 02:56:29;;;;;;;15.25;11.85;;;16.40;99.90;;;;;;5035982;28;20037;-77
2021/07/11 02:59:00;;;;;;;15.07;11.52;;;16.40;99.90;;;;;;5017202;28;20041;-78
2021/07/11 03:01:30;;;;;;;15.75;10.05;;;16.40;99.90;;;;;;5042322;28;20501;-78
2021/07/11 03:03:59;;;;;;;11.63;9.35;;;16.30;99.90;;;;;;5028911;28;20516;-76
2021/07/11 03:06:32;;;;;;;13.88;9.45;;;16.30;99.90;;;;;;5033142;28;20041;-76
2021/07/11 03:09:01;;;;;;;13.57;10.05;;;16.20;99.90;;;;;;5029554;28;20048;-75
2021/07/11 03:11:29;;;;;;;17.90;10.65;;;16.20;99.90;;;;;;5052265;28;20450;-76
2021/07/11 03:13:59;;;;;;;10.95;9.82;;;16.30;99.90;;;;;;5032609;28;20044;-77
2021/07/11 03:16:31;;;;;;;15.18;10.95;;;16.20;99.90;;;;;;5049967;28;20055;-77
2021/07/11 03:19:00;;;;;;;13.57;10.40;;;16.30;99.90;;;;;;5050737;28;20033;-77
2021/07/11 03:21:30;;;;;;;16.35;10.82;;;16.30;99.90;;;;;;5031203;28;20041;-78
2021/07/11 03:23:57;;;;;;;13.70;11.57;;;16.30;99.90;;;;;;5032847;28;20430;-78
2021/07/11 03:26:28;;;;;;;15.48;11.45;;;16.30;99.90;;;;;;5024345;28;20048;-77
2021/07/11 03:28:55;;;;;;;17.90;10.20;;;16.20;99.90;;;;;;5042887;28;20466;-77
2021/07/11 03:31:22;;;;;;;13.07;9.90;;;16.20;99.90;;;;;;5069603;28;20033;-77
2021/07/11 03:33:57;;;;;;;15.05;11.45;;;16.30;99.90;;;;;;5028895;28;20045;-77
2021/07/11 03:36:26;;;;;;;16.98;11.75;;;16.30;99.90;;;;;;5043979;28;20033;-77
2021/07/11 03:38:57;;;;;;;14.48;12.43;;;16.40;99.90;;;;;;5047981;28;20328;-77
2021/07/11 03:41:31;;;;;;;18.85;11.68;;;16.30;99.90;;;;;;5035381;28;20092;-75
2021/07/11 03:44:00;;;;;;;16.85;12.20;;;16.30;99.90;;;;;;5054883;28;20053;-77
2021/07/11 03:46:31;;;;;;;13.90;10.23;;;16.30;99.90;;;;;;5054785;28;20052;-77
2021/07/11 03:49:00;;;;;;;12.18;9.95;;;16.30;99.90;;;;;;5044486;28;20033;-77
2021/07/11 03:51:30;;;;;;;12.02;9.98;;;16.30;99.90;;;;;;5042759;28;20041;-77
2021/07/11 03:53:58;;;;;;;14.35;9.82;;;16.30;99.90;;;;;;5052569;28;20467;-76
2021/07/11 03:56:32;;;;;;;16.25;12.00;;;16.30;99.90;;;;;;5036117;28;20041;-77
2021/07/11 03:58:59;;;;;;;16.38;12.25;;;16.40;99.90;;;;;;5038120;28;20048;-77
2021/07/11 04:01:32;;;;;;;17.80;11.98;;;16.30;99.90;;;;;;5055369;28;20052;-77
2021/07/11 04:04:01;;;;;;;16.42;12.88;;;16.40;99.90;;;;;;5055073;28;20059;-78
2021/07/11 04:06:31;;;;;;;23.80;13.73;;;16.40;99.90;;;;;;5055350;28;20033;-78
2021/07/11 04:09:00;;;;;;;17.88;13.68;;;16.40;99.90;;;;;;5037156;28;20045;-78
2021/07/11 04:11:26;;;;;;;17.10;12.82;;;16.40;99.90;;;;;;5047235;28;20513;-78
2021/07/11 04:13:53;;;;;;;20.05;13.13;;;16.40;99.90;;;;;;5039372;28;20056;-78
2021/07/11 04:16:31;;;;;;;18.65;12.98;;;16.40;99.90;;;;;;5037032;28;20045;-78
2021/07/11 04:19:00;;;;;;;15.73;12.23;;;16.40;99.90;;;;;;5055031;28;20056;-77
2021/07/11 04:21:28;;;;;;;21.58;13.68;;;16.50;99.90;;;;;;5055010;28;20041;-78
2021/07/11 04:23:57;;;;;;;16.17;12.07;;;16.50;99.90;;;;;;5054776;28;20037;-77
2021/07/11 04:26:24;;;;;;;18.02;11.10;;;16.40;99.90;;;;;;5054972;28;20033;-76
2021/07/11 04:28:53;;;;;;;13.38;10.85;;;16.30;99.90;;;;;;5054678;28;20040;-77
2021/07/11 04:31:19;;;;;;;13.73;11.15;;;16.30;99.90;;;;;;5055014;28;20033;-77
2021/07/11 04:33:46;;;;;;;12.00;10.15;;;16.40;99.90;;;;;;5045211;28;20038;-76
2021/07/11 04:36:13;;;;;;;13.75;9.98;;;16.30;99.90;;;;;;5044428;28;20032;-78
2021/07/11 04:38:39;;;;;;;12.45;9.23;;;16.30;99.90;;;;;;5055005;28;20033;-76
2021/07/11 04:41:07;;;;;;;14.30;8.80;;;16.30;99.90;;;;;;5055451;28;20037;-76
2021/07/11 04:43:33;;;;;;;12.73;9.05;;;16.30;99.90;;;;;;5054700;28;20080;-77
2021/07/11 04:46:00;;;;;;;8.75;7.50;;;16.30;99.90;;;;;;5059509;28;20036;-78
2021/07/11 04:48:26;;;;;;;9.90;7.35;;;16.10;99.90;;;;;;5058813;28;20032;-77
2021/07/11 04:50:52;;;;;;;8.50;7.05;;;16.10;99.90;;;;;;5047945;28;20049;-77
2021/07/11 04:53:19;;;;;;;8.07;6.40;;;16.10;99.90;;;;;;5035694;28;20049;-78
2021/07/11 04:55:47;;;;;;;8.75;6.30;;;16.00;99.90;;;;;;5037568;28;20041;-77
2021/07/11 04:58:14;;;;;;;8.25;6.60;;;16.00;99.90;;;;;;5046340;28;20489;-77
2021/07/11 05:00:41;;;;;;;8.50;6.53;;;16.00;99.90;;;;;;5029011;28;20053;-76
2021/07/11 05:03:08;;;;;;;11.40;7.07;;;15.90;99.90;;;;;;5063718;28;20025;-76
2021/07/11 05:05:35;;;;;;;7.30;6.43;;;15.90;99.90;;;;;;5077429;28;20053;-75
2021/07/11 05:08:03;;;;;;;8.90;7.00;;;15.90;99.90;;;;;;5055679;28;20040;-78
2021/07/11 05:10:29;;;;;;;8.00;6.85;;;15.90;99.90;;;;;;5046488;28;20029;-79
2021/07/11 05:12:55;;;;;;;9.93;8.00;;;15.90;99.90;;;;;;5045379;28;20045;-79
2021/07/11 05:15:22;;;;;;;9.23;8.23;;;15.80;99.90;;;;;;5056083;28;20485;-78
2021/07/11 05:17:48;;;;;;;10.38;9.23;;;15.70;99.90;;;;;;5055539;28;20481;-77
2021/07/11 05:20:14;;;;;;;10.07;9.07;;;15.70;99.90;;;;;;5055429;28;20025;-79
2021/07/11 05:22:40;;;;;;;10.13;9.13;;;15.70;99.90;;;;;;5054815;28;20378;-77
2021/07/11 05:25:08;;;;;;;13.48;12.18;;;15.70;99.90;;;;;;5045311;28;20044;-78
2021/07/11 05:27:35;;;;;;;14.57;12.82;;;15.70;99.90;;;;;;5037155;28;20041;-79
2021/07/11 05:30:02;;;;;;;15.50;12.55;;;15.70;99.90;;;;;;5053445;28;20041;-78
2021/07/11 05:32:28;;;;;;;17.63;15.30;;;15.70;99.90;;;;;;5055428;28;20030;-79
2021/07/11 05:34:55;;;;;;;15.90;14.20;;;15.70;99.90;;;;;;5054691;28;20044;-81
2021/07/11 05:37:21;;;;;;;15.98;14.27;;;15.70;99.90;;;;;;5046610;28;20037;-77
2021/07/11 05:39:47;;;;;;;17.05;15.35;;;15.70;99.90;;;;;;5055384;28;20029;-77
2021/07/11 05:42:13;;;;;;;20.13;17.38;;;15.70;99.90;;;;;;5056368;28;20036;-79
2021/07/11 05:44:40;;;;;;;17.92;15.35;;;15.70;99.90;;;;;;5051618;28;20044;-77
2021/07/11 05:47:06;;;;;;;22.05;16.40;;;15.70;99.90;;;;;;5046610;28;20132;-78
2021/07/11 05:49:32;;;;;;;16.08;12.75;;;15.80;99.90;;;;;;5054380;28;20029;-79
2021/07/11 05:52:00;;;;;;;13.23;11.85;;;15.90;99.90;;;;;;5054697;28;20060;-79
2021/07/11 05:54:26;;;;;;;18.00;13.15;;;16.00;99.90;;;;;;5054848;28;20052;-78
2021/07/11 05:56:52;;;;;;;17.40;14.48;;;16.00;99.90;;;;;;5054168;28;20033;-79
2021/07/11 05:59:19;;;;;;;14.80;12.13;;;16.10;99.90;;;;;;5053912;28;20384;-78
2021/07/11 06:01:45;;;;;;;15.35;13.45;;;16.10;99.90;;;;;;5057442;28;20037;-75
2021/07/11 06:04:11;;;;;;;13.73;12.10;;;16.10;99.90;;;;;;5035543;28;20109;-81
2021/07/11 06:06:37;;;;;;;11.13;9.65;;;16.30;99.90;;;;;;5054964;28;20048;-79
2021/07/11 06:09:03;;;;;;;13.10;10.00;;;16.30;99.90;;;;;;5052994;28;20032;-80
2021/07/11 06:11:30;;;;;;;10.55;8.82;;;16.40;99.90;;;;;;5053187;28;20044;-81
2021/07/11 06:13:56;;;;;;;10.25;9.15;;;16.40;99.90;;;;;;5054090;28;20037;-80
2021/07/11 06:16:22;;;;;;;10.10;8.98;;;16.50;99.90;;;;;;5055448;28;20029;-79
2021/07/11 06:18:49;;;;;;;9.38;8.38;;;16.60;99.90;;;;;;5033530;28;20048;-80
2021/07/11 06:21:15;;;;;;;13.40;8.88;;;16.70;99.90;;;;;;5038519;28;20054;-79
2021/07/11 06:23:41;;;;;;;9.13;8.15;;;16.80;99.90;;;;;;5074110;28;20017;-77
2021/07/11 06:26:07;;;;;;;10.95;7.90;;;16.80;99.90;;;;;;5077155;28;20025;-81
2021/07/11 06:28:33;;;;;;;12.40;9.05;;;16.80;99.90;;;;;;5076242;28;20017;-79
2021/07/11 06:31:00;;;;;;;9.93;8.93;;;16.80;99.90;;;;;;5073138;28;20035;-79
2021/07/11 06:33:26;;;;;;;9.10;8.20;;;16.90;99.90;;;;;;5069534;28;20047;-78
2021/07/11 06:35:52;;;;;;;10.95;7.57;;;17.00;99.90;;;;;;5059719;28;20033;-79
2021/07/11 06:38:19;;;;;;;9.57;6.90;;;17.00;99.90;;;;;;5058088;28;20029;-78
2021/07/11 06:40:45;;;;;;;8.85;6.72;;;16.90;99.90;;;;;;5053670;28;20029;-78
2021/07/11 06:43:11;;;;;;;7.63;6.50;;;16.90;99.90;;;;;;5037000;28;20033;-78
2021/07/11 06:45:38;;;;;;;7.15;6.45;;;16.90;99.90;;;;;;5046898;28;20038;-77
2021/07/11 06:48:04;;;;;;;10.45;6.65;;;16.90;99.90;;;;;;5050662;28;20168;-78
2021/07/11 06:50:30;;;;;;;7.32;5.60;;;16.80;99.90;;;;;;5046166;28;20045;-77
2021/07/11 06:52:56;;;;;;;8.82;5.80;;;16.80;99.90;;;;;;5033739;28;20040;-79
2021/07/11 06:55:22;;;;;;;9.93;5.90;;;16.80;99.90;;;;;;5033837;28;20411;-78
2021/07/11 06:57:49;;;;;;;8.15;4.72;;;16.80;99.90;;;;;;5045213;28;20033;-78
2021/07/11 07:00:16;;;;;;;6.93;5.95;;;16.80;99.90;;;;;;5043180;28;20042;-77
2021/07/11 07:02:42;;;;;;;11.55;5.60;;;16.70;99.90;;;;;;5052620;28;20024;-78
2021/07/11 07:05:10;;;;;;;10.70;6.93;;;16.80;99.90;;;;;;5044186;28;20037;-76
2021/07/11 07:07:36;;;;;;;7.68;6.22;;;16.80;99.90;;;;;;5044708;28;20040;-79
2021/07/11 07:10:09;;;;;;;7.00;5.43;;;16.80;99.90;;;;;;5052430;28;20032;-76
2021/07/11 07:12:37;;;;;;;7.20;6.07;;;16.90;99.90;;;;;;5053421;28;20028;-77
2021/07/11 07:15:05;;;;;;;6.72;6.05;;;16.90;99.90;;;;;;5051987;28;20043;-77
2021/07/11 07:17:31;;;;;;;6.88;5.03;;;17.00;99.90;;;;;;5052315;28;20390;-77
2021/07/11 07:19:58;;;;;;;5.45;4.53;;;17.10;99.90;;;;;;5051541;28;20237;-79
2021/07/11 07:22:24;;;;;;;5.20;4.15;;;17.20;99.90;;;;;;5039581;28;20044;-76
2021/07/11 07:24:50;;;;;;;6.88;5.05;;;17.20;99.90;;;;;;5035638;28;20029;-77
2021/07/11 07:27:16;;;;;;;6.90;4.75;;;17.30;99.90;;;;;;5053059;28;20048;-75
2021/07/11 07:29:43;;;;;;;5.88;4.55;;;17.50;99.90;;;;;;5035782;28;20049;-75
2021/07/11 07:32:09;;;;;;;7.38;5.32;;;17.60;99.90;;;;;;5052970;28;20025;-76
2021/07/11 07:34:35;;;;;;;3.38;3.08;;;17.90;99.90;;;;;;5033150;28;20049;-76
2021/07/11 07:37:01;;;;;;;3.83;2.88;;;17.90;99.90;;;;;;5048402;28;20025;-77
2021/07/11 07:39:28;;;;;;;4.85;3.30;;;18.00;99.90;;;;;;5056337;28;20040;-76
2021/07/11 07:41:55;;;;;;;4.70;3.22;;;17.90;99.90;;;;;;5041258;28;20044;-75
2021/07/11 07:44:22;;;;;;;4.00;3.22;;;17.90;99.90;;;;;;5044846;28;20034;-78
2021/07/11 07:46:49;;;;;;;4.97;3.42;;;17.90;99.90;;;;;;5051740;28;20048;-77
2021/07/11 07:49:15;;;;;;;4.47;2.80;;;17.90;99.90;;;;;;5052958;28;20521;-77
2021/07/11 07:51:42;;;;;;;3.97;3.45;;;17.80;99.90;;;;;;5049263;28;20045;-77
2021/07/11 07:54:08;;;;;;;6.43;3.80;;;17.60;99.90;;;;;;5046271;28;20459;-77
2021/07/11 07:56:34;;;;;;;5.22;3.10;;;17.50;99.90;;;;;;5040845;28;20042;-77
2021/07/11 07:59:01;;;;;;;5.47;3.10;;;17.60;99.90;;;;;;5041287;28;20045;-77
2021/07/11 08:01:27;;;;;;;4.68;2.95;;;17.60;99.90;;;;;;5035072;28;20044;-75
2021/07/11 08:03:53;;;;;;;4.10;3.38;;;17.70;99.90;;;;;;5051306;28;20033;-77
2021/07/11 08:06:19;;;;;;;4.93;3.33;;;17.70;99.90;;;;;;5052149;28;20045;-77
2021/07/11 08:08:46;;;;;;;4.03;3.20;;;17.70;99.90;;;;;;5051678;28;20029;-77
2021/07/11 08:11:12;;;;;;;5.70;3.25;;;17.80;99.90;;;;;;5051653;28;20040;-77
2021/07/11 08:13:39;;;;;;;5.47;3.30;;;17.80;99.90;;;;;;5050528;28;20410;-76
2021/07/11 08:16:06;;;;;;;4.35;3.50;;;17.80;99.90;;;;;;5013114;28;20056;-76
2021/07/11 08:18:34;;;;;;;6.05;2.90;;;17.90;99.90;;;;;;5037200;28;20025;-77
2021/07/11 08:21:00;;;;;;;3.72;3.05;;;17.80;99.90;;;;;;5049776;28;20060;-77
2021/07/11 08:23:26;;;;;;;3.88;3.08;;;17.70;99.90;;;;;;5040998;28;20052;-77
2021/07/11 08:25:52;;;;;;;4.15;2.70;;;17.70;99.90;;;;;;5070420;28;20053;-76
2021/07/11 08:28:19;;;;;;;4.90;3.40;;;17.90;99.90;;;;;;5079081;28;20017;-75
2021/07/11 08:30:45;;;;;;;5.55;2.95;;;18.00;99.90;;;;;;5058748;28;20041;-75
2021/07/11 08:33:11;;;;;;;4.03;2.65;;;18.10;99.90;;;;;;5042884;28;20052;-77
2021/07/11 08:35:37;;;;;;;3.97;3.28;;;18.00;99.90;;;;;;5055357;28;20043;-76
2021/07/11 08:38:04;;;;;;;7.68;2.95;;;18.00;99.90;;;;;;5048252;28;20038;-78
2021/07/11 08:40:34;;;;;;;4.95;3.33;;;18.10;99.90;;;;;;5036161;28;20501;-77
2021/07/11 08:43:03;;;;;;;;;;;18.10;99.90;;;;;;5037489;28;20044;-77
2021/07/11 08:45:29;;;;;;;3.85;2.85;;;18.30;99.90;;;;;;5045361;28;19913;-76
2021/07/11 08:47:55;;;;;;;3.88;3.28;;;18.40;99.90;;;;;;5057102;28;20052;-75
2021/07/11 08:50:21;;;;;;;3.85;2.70;;;18.40;99.90;;;;;;5056725;28;20037;-75
2021/07/11 08:52:48;;;;;;;3.45;2.55;;;18.70;99.90;;;;;;5047263;28;20036;-75
2021/07/11 08:55:21;;;;;;;4.15;2.40;;;18.90;99.90;;;;;;5054693;28;20052;-74
2021/07/11 08:57:56;;;;;;;7.05;2.97;;;18.90;99.90;;;;;;5053730;28;20032;-74
2021/07/11 09:00:28;;;;;;;3.00;2.67;;;19.00;99.90;;;;;;5045880;28;20033;-74
2021/07/11 09:02:55;;;;;;;4.43;2.35;;;19.00;99.90;;;;;;5048725;28;20635;-75
2021/07/11 09:05:32;;;;;;;3.90;2.72;;;19.20;99.90;;;;;;5035548;28;20045;-75
2021/07/11 09:08:12;;;;;;;4.55;2.75;;;19.50;99.90;;;;;;5053729;28;20040;-75
2021/07/11 09:10:57;;;;;;;3.03;2.20;;;19.80;99.90;;;;;;5044360;28;20040;-75
2021/07/11 09:13:26;;;;;;;3.17;1.85;;;20.30;99.90;;;;;;5050395;28;20033;-75
2021/07/11 09:15:55;;;;;;;4.22;2.40;;;20.40;99.90;;;;;;5053819;28;20470;-75
2021/07/11 09:18:25;;;;;;;2.72;1.90;;;20.80;99.90;;;;;;5047099;28;20030;-75
2021/07/11 09:21:07;;;;;;;3.47;1.73;;;20.70;99.90;;;;;;5046490;28;20036;-76
2021/07/11 09:23:35;;;;;;;3.75;2.38;;;20.50;99.90;;;;;;5052746;28;20033;-77
2021/07/11 09:26:12;;;;;;;4.68;2.00;;;20.50;99.90;;;;;;5049346;28;20680;-78
2021/07/11 09:28:49;;;;;;;4.95;2.40;;;20.30;99.90;;;;;;5041394;28;20033;-79
2021/07/11 09:31:18;;;;;;;2.78;2.05;;;19.90;99.90;;;;;;5016772;28;20045;-79
2021/07/11 09:33:56;;;;;;;2.90;2.17;;;20.00;99.90;;;;;;5045531;28;20067;-76
2021/07/11 09:36:23;;;;;;;4.65;2.05;;;20.10;99.90;;;;;;5049011;28;20033;-78
2021/07/11 09:38:59;;;;;;;3.67;2.00;;;19.80;99.90;;;;;;5028774;28;20467;-77
2021/07/11 09:41:33;;;;;;;3.67;2.28;;;19.90;99.90;;;;;;5035950;28;20048;-78
2021/07/11 09:44:01;;;;;;;4.25;2.35;;;20.10;99.90;;;;;;5053116;28;20494;-77
2021/07/11 09:46:33;;;;;;;3.85;2.20;;;20.50;99.90;;;;;;5053182;28;20395;-78
2021/07/11 09:49:00;;;;;;;4.03;1.80;;;20.90;99.90;;;;;;5053265;28;20063;-77
2021/07/11 09:51:29;;;;;;;3.50;1.95;;;21.10;99.70;;;;;;5053362;28;20053;-78
2021/07/11 09:54:11;;;;;;;2.35;1.50;;;20.90;99.90;;;;;;5041152;28;20471;-77
2021/07/11 09:56:38;;;;;;;2.50;1.70;;;20.70;99.70;;;;;;5034579;28;20041;-77
2021/07/11 09:59:07;;;;;;;3.70;1.73;;;21.10;99.50;;;;;;5051939;28;20049;-77
2021/07/11 10:01:36;;;;;;;3.70;1.52;;;21.40;98.00;;;;;;5039350;28;20029;-77
2021/07/11 10:04:03;;;;;;;3.45;1.60;;;21.20;98.90;;;;;;5046798;28;20637;-77
2021/07/11 10:06:32;;;;;;;2.10;1.50;;;21.90;97.60;;;;;;5053586;28;20048;-77
2021/07/11 10:08:59;;;;;;;2.58;1.52;;;22.10;95.90;;;;;;5035289;28;20037;-76
2021/07/11 10:11:25;;;;;;;1.80;1.38;;;21.50;96.20;;;;;;5050301;28;20025;-76
2021/07/11 10:13:52;;;;;;;4.07;1.45;;;22.30;94.70;;;;;;5041712;28;20478;-77
2021/07/11 10:16:22;;;;;;;3.78;1.10;;;22.90;93.70;;;;;;5043755;28;20032;-77
2021/07/11 10:18:53;;;;;;;4.10;1.23;;;23.20;91.70;;;;;;5050115;28;20040;-75
2021/07/11 10:21:20;;;;;;;1.40;1.20;;;22.60;92.50;;;;;;5047873;28;20051;-77
2021/07/11 10:23:46;;;;;;;2.30;1.30;;;23.10;92.30;;;;;;5052028;28;20125;-77
2021/07/11 10:26:16;;;;;;;2.50;1.40;;;23.50;89.90;;;;;;5052743;28;20078;-76
2021/07/11 10:28:48;;;;;;;3.63;1.02;;;24.00;86.90;;;;;;5052697;28;20045;-77
2021/07/11 10:31:22;;;;;;;4.20;1.40;;;23.10;90.70;;;;;;5047285;28;20036;-76
2021/07/11 10:33:50;;;;;;;1.80;1.20;;;21.90;91.20;;;;;;5024273;28;20463;-76
2021/07/11 10:36:17;;;;;;;2.15;1.30;;;21.20;92.20;;;;;;5039825;28;20359;-77
2021/07/11 10:38:44;;;;;;;2.78;1.45;;;21.00;92.30;;;;;;5048237;28;20035;-75
2021/07/11 10:41:20;;;;;;;5.20;1.88;;;20.90;93.50;;;;;;5052634;28;20028;-76
2021/07/11 10:44:20;;;;;;;1.67;1.02;;;21.30;92.50;;;;;;5052049;28;20041;-77
2021/07/11 10:46:54;;;;;;;4.95;1.20;;;21.50;91.50;;;;;;5051527;28;20046;-75
2021/07/11 10:49:22;;;;;;;1.85;1.00;;;21.50;91.20;;;;;;5051583;28;20033;-77
2021/07/11 10:51:54;;;;;;;2.47;1.17;;;21.80;90.90;;;;;;5036736;28;20056;-77
2021/07/11 10:54:36;;;;;;;2.70;1.17;;;22.20;87.60;;;;;;5055115;28;20029;-77
2021/07/11 10:57:10;;;;;;;2.80;1.17;;;22.30;89.20;;;;;;5063277;28;20028;-75
2021/07/11 10:59:41;;;;;;;2.22;1.05;;;22.10;87.60;;;;;;5054377;28;20025;-75
2021/07/11 11:02:16;;;;;;;6.35;1.40;;;21.80;89.40;;;;;;5047063;28;20044;-76
2021/07/11 11:04:44;;;;;;;1.27;0.85;;;22.10;87.40;;;;;;5050336;28;20029;-76
2021/07/11 11:07:14;;;;;;;2.58;1.60;;;22.10;87.90;;;;;;5055412;28;20384;-77
2021/07/11 11:09:47;;;;;;;1.83;1.15;;;22.20;87.50;;;;;;5045161;28;20040;-76
2021/07/11 11:12:31;;;;;;;1.33;0.80;;;21.90;87.90;;;;;;5052117;28;20033;-76
2021/07/11 11:15:11;;;;;;;1.20;0.80;;;22.10;86.50;;;;;;5052106;28;20377;-75
2021/07/11 11:17:37;;;;;;;3.72;1.45;;;22.00;86.10;;;;;;5034768;28;20033;-75
2021/07/11 11:20:12;;;;;;;1.63;1.10;;;21.80;87.70;;;;;;5050546;28;20063;-76
2021/07/11 11:22:39;;;;;;;2.63;1.08;;;21.90;86.00;;;;;;5051643;28;20064;-76
2021/07/11 11:25:06;;;;;;;1.30;0.95;;;21.80;86.30;;;;;;5051807;28;20394;-76
2021/07/11 11:27:38;;;;;;;1.42;1.02;;;21.80;86.70;;;;;;5040188;28;20037;-77
2021/07/11 11:30:18;;;;;;;1.35;1.02;;;21.60;88.50;;;;;;5051963;28;20036;-77
2021/07/11 11:33:03;;;;;;;1.67;1.20;;;22.10;88.20;;;;;;5055273;28;20048;-77
2021/07/11 11:35:34;;;;;;;2.45;1.10;;;22.50;84.70;;;;;;5037255;28;20489;-77
2021/07/11 11:38:06;;;;;;;1.48;0.90;;;22.50;83.90;;;;;;5041577;28;20041;-76
2021/07/11 11:40:35;;;;;;;2.55;1.10;;;22.90;82.70;;;;;;5049626;28;20033;-79
2021/07/11 11:43:04;;;;;;;3.58;1.55;;;22.90;83.00;;;;;;5038578;28;20029;-79
2021/07/11 11:45:33;;;;;;;1.70;1.35;;;23.40;83.00;;;;;;5051866;28;20059;-79
2021/07/11 11:48:09;;;;;;;3.15;1.17;;;23.40;83.50;;;;;;5059313;28;20016;-77
2021/07/11 11:50:38;;;;;;;1.85;1.23;;;23.40;81.70;;;;;;5071938;28;20045;-77
2021/07/11 11:53:12;;;;;;;2.38;1.10;;;22.70;81.90;;;;;;5066118;28;20359;-79
2021/07/11 11:55:49;;;;;;;1.75;1.23;;;22.50;84.10;;;;;;5052026;28;20032;-79
2021/07/11 11:58:28;;;;;;;2.92;1.13;;;22.50;83.00;;;;;;5052304;28;20044;-79
2021/07/11 12:01:15;;;;;;;1.67;1.13;;;22.90;84.90;;;;;;5051807;28;20033;-79
2021/07/11 12:03:44;;;;;;;1.58;1.10;;;23.70;80.60;;;;;;5048313;28;20021;-80
2021/07/11 12:06:15;;;;;;;1.67;1.20;;;23.60;81.50;;;;;;5055152;28;20033;-78
2021/07/11 12:08:43;;;;;;;1.45;1.10;;;23.40;81.50;;;;;;5037320;28;20048;-75
2021/07/11 12:11:11;;;;;;;1.88;1.13;;;22.90;80.80;;;;;;5046759;28;20040;-77
2021/07/11 12:13:38;;;;;;;4.75;2.00;;;22.70;81.30;;;;;;5038334;28;20049;-80
2021/07/11 12:16:11;;;;;;;2.97;2.13;;;22.60;81.60;;;;;;5036094;28;20053;-77
2021/07/11 12:18:57;;;;;;;2.40;1.75;;;22.70;80.60;;;;;;5054342;28;20044;-76
2021/07/11 12:21:27;;;;;;;2.83;2.00;;;22.10;81.00;;;;;;5040780;28;20033;-77
2021/07/11 12:23:57;;;;;;;2.72;1.48;;;21.80;81.60;;;;;;5054378;28;20049;-77
2021/07/11 12:26:25;;;;;;;3.10;1.17;;;21.60;83.60;;;;;;5055047;28;20029;-78
2021/07/11 12:28:53;;;;;;;1.63;1.20;;;22.00;84.10;;;;;;5053010;28;20294;-77
2021/07/11 12:31:25;;;;;;;2.75;1.77;;;22.40;82.10;;;;;;5054594;28;20025;-78
2021/07/11 12:34:01;;;;;;;1.83;1.25;;;22.70;81.30;;;;;;5054601;28;20033;-77
2021/07/11 12:36:29;;;;;;;2.67;1.60;;;22.90;78.90;;;;;;5035171;28;20068;-78
2021/07/11 12:38:59;;;;;;;1.73;1.33;;;22.90;80.30;;;;;;5052648;28;20398;-78
2021/07/11 12:41:34;;;;;;;2.50;1.65;;;22.50;80.40;;;;;;5041694;28;20038;-79
2021/07/11 12:44:04;;;;;;;2.35;1.95;;;22.50;80.10;;;;;;5050318;28;20465;-78
2021/07/11 12:46:31;;;;;;;3.47;1.67;;;22.60;80.30;;;;;;5061582;28;20036;-80
2021/07/11 12:49:01;;;;;;;2.15;1.40;;;22.50;78.10;;;;;;5048426;28;20052;-79
2021/07/11 12:51:29;;;;;;;2.00;1.58;;;22.70;78.50;;;;;;5052984;28;20061;-79